Pagrindinis puslapis
METAR-TAF:

METAR-TAF

Oro uostai :

Stenlis, Folklando

platuma: 51-49S, ilguma: 058-27W, Aukštis: 74 m

Dabartinis oras

Ataskaita buvo paskelbta 35 minutes, ne 10:50 UTC
Vėjas 6 kt iš Vakarų/Pietvakarių
Temperatūra 6°C
Drėgmė 100%
Slėgis 1014 hPa
Matomumas 10 km arba daugiau
Apsiniaukę ne aukštis 300 ft

METAR: EGYP 121050Z 25006KT 9999 OVC003 06/06 Q1014 BECMG BKN008

Laikas: 08:25 (11:25 UTC)

Prognozė

Ataskaita buvo paskelbta 2 valandos ir 7 minutes, ne 09:18 UTC
Prognozė galioja nuo 12 metu 09 UTC su 13 metu 03 UTC
Vėjas 8 kt iš Vakarų
Matomumas: 0700 m
Su prošvaistėmis ne aukštis 100 ft
rūkas
Tapsmas
nuo 12 metu 09 UTC su 12 metu 12 UTC
Matomumas 10 km arba daugiau
Su prošvaistėmis ne aukštis 800 ft
Tapsmas
nuo 12 metu 12 UTC su 12 metu 15 UTC
Mažai debesys ne aukštis 1200 ft
Tikimybė 40%
nuo 13 metu 00 UTC su 13 metu 03 UTC
Su prošvaistėmis ne aukštis 500 ft

TAF: EGYP 120918Z 1209/1303 27008KT 0700 FG BKN001 BECMG 1209/1212 9999 NSW BKN008 BECMG 1212/1215 FEW012 PROB40 1300/1303 BKN005

Orai ataskaitas ir orų prognozės (METAR, TAF).

turimą stotys yra geltonos ir raudonos taškus žemėlapyje.

Perkelti pele per norėdami pamatyti stoties vardą.

Tada spustelėkite, norėdami matyti oro stebėjimo ir prognozės.

Norėdami pakeisti žemėlapį: spustelėkite ant žalios mygtukų su juodo kryžiaus žemyn,; žalią mygtuką su brūkšneliu, jei norite nutolinti; arba žalių rodyklių gretimoms žemėlapius.


METAR-TAF: